Time;durP1;ratioP1;P1;durP2;ratioP2;P2;SDS_P1;SDS_P2;PMS_P1;PMS_P2;Temp;Humidity;BMP_temperature;BMP_pressure;BME280_temperature;BME280_humidity;BME280_pressure;Samples;Min_cycle;Max_cycle;Signal;HPM_P1;HPM_P2
2023/07/01 00:00:21;;;;;;;;;;;;;;;;;;5011442;28;8449;-83
2023/07/01 00:02:48;;;;;;;;;;;;;;;;;;5010990;28;8561;-84
2023/07/01 00:05:14;;;;;;;;;;;;;;;;;;5011544;28;8744;-83
2023/07/01 00:07:39;;;;;;;;;;;;;;;;;;5011526;28;7064;-84
2023/07/01 00:10:05;;;;;;;;;;;;;;;;;;5012392;28;8416;-85
2023/07/01 00:12:31;;;;;;;;;;;;;;;;;;5012940;28;8515;-84
2023/07/01 00:14:56;;;;;;;;;;;;;;;;;;5004712;28;8384;-83
2023/07/01 00:17:22;;;;;;;;;;;;;;;;;;5009999;28;7402;-84
2023/07/01 00:19:47;;;;;;;;;;;;;;;;;;5003420;28;7200;-83
2023/07/01 00:22:13;;;;;;;;;;;;;;;;;;5000263;28;7287;-83
2023/07/01 00:24:38;;;;;;;;;;;;;;;;;;5012806;28;7234;-84
2023/07/01 00:27:04;;;;;;;;;;;;;;;;;;5012744;28;9289;-84
2023/07/01 00:29:29;;;;;;;;;;;;;;;;;;5012477;28;8674;-84
2023/07/01 00:31:55;;;;;;;;;;;;;;;;;;5012543;28;8472;-84
2023/07/01 00:34:21;;;;;;;;;;;;;;;;;;5012316;28;8485;-84
2023/07/01 00:36:46;;;;;;;;;;;;;;;;;;5012323;28;9402;-85
2023/07/01 00:39:12;;;;;;;;;;;;;;;;;;5012206;28;8461;-85
2023/07/01 00:41:37;;;;;;;;;;;;;;;;;;5012313;28;7193;-84
2023/07/01 00:44:03;;;;;;;;;;;;;;;;;;5012713;28;8442;-85
2023/07/01 00:46:33;;;;;;;;;;;;;;;;;;5012180;28;7296;-85
2023/07/01 00:49:00;;;;;;;;;;;;;;;;;;5012673;28;7029;-84
2023/07/01 00:51:30;;;;;;;;;;;;;;;;;;5012638;28;9224;-84
2023/07/01 00:53:56;;;;;;;;;;;;;;;;;;5012184;28;7194;-85
2023/07/01 00:56:22;;;;;;;;;;;;;;;;;;5012203;28;8405;-85
2023/07/01 00:58:47;;;;;;;;;;;;;;;;;;5012340;28;8727;-84
2023/07/01 01:01:17;;;;;;;;;;;;;;;;;;5009074;28;7459;-84
2023/07/01 01:03:53;;;;;;;;;;;;;;;;;;5008903;28;8395;-85
2023/07/01 01:06:33;;;;;;;;;;;;;;;;;;5009594;28;7081;-84
2023/07/01 01:09:11;;;;;;;;;;;;;;;;;;5009097;28;8465;-84
2023/07/01 01:11:44;;;;;;;;;;;;;;;;;;4993098;28;8433;-85
2023/07/01 01:14:11;;;;;;;;;;;;;;;;;;5008970;28;8454;-84
2023/07/01 01:16:39;;;;;;;;;;;;;;;;;;5009242;28;8783;-83
2023/07/01 01:19:09;;;;;;;;;;;;;;;;;;5008953;28;8926;-84
2023/07/01 01:21:37;;;;;;;;;;;;;;;;;;5009111;28;8630;-85
2023/07/01 01:24:05;;;;;;;;;;;;;;;;;;5009021;28;8735;-84
2023/07/01 01:26:38;;;;;;;;;;;;;;;;;;5011284;28;8902;-84
2023/07/01 01:29:06;;;;;;;;;;;;;;;;;;5012390;28;7306;-84
2023/07/01 01:31:33;;;;;;;;;;;;;;;;;;5012724;28;8398;-85
2023/07/01 01:33:58;;;;;;;;;;;;;;;;;;5012793;28;7300;-84
2023/07/01 01:36:39;;;;;;;;;;;;;;;;;;5012722;28;8360;-84
2023/07/01 01:39:06;;;;;;;;;;;;;;;;;;5012622;28;8487;-84
2023/07/01 01:41:41;;;;;;;;;;;;;;;;;;5012203;28;8648;-84
2023/07/01 01:44:16;;;;;;;;;;;;;;;;;;4996221;28;7190;-85
2023/07/01 01:46:43;;;;;;;;;;;;;;;;;;5012356;28;8862;-84
2023/07/01 01:49:12;;;;;;;;;;;;;;;;;;5012353;28;8496;-84
2023/07/01 01:51:40;;;;;;;;;;;;;;;;;;5013592;28;7132;-82
2023/07/01 01:54:09;;;;;;;;;;;;;;;;;;5012345;28;8413;-81
2023/07/01 01:56:36;;;;;;;;;;;;;;;;;;5012280;28;8746;-82
2023/07/01 01:59:02;;;;;;;;;;;;;;;;;;5012200;28;8444;-83
2023/07/01 02:01:28;;;;;;;;;;;;;;;;;;5011589;28;7186;-84
2023/07/01 02:03:53;;;;;;;;;;;;;;;;;;5012109;28;7190;-83
2023/07/01 02:06:19;;;;;;;;;;;;;;;;;;5012235;28;8504;-83
2023/07/01 02:08:46;;;;;;;;;;;;;;;;;;5011704;28;7201;-84
2023/07/01 02:11:11;;;;;;;;;;;;;;;;;;5012010;28;7472;-84
2023/07/01 02:13:37;;;;;;;;;;;;;;;;;;5011677;28;7178;-83
2023/07/01 02:16:02;;;;;;;;;;;;;;;;;;5011825;28;7080;-83
2023/07/01 02:18:28;;;;;;;;;;;;;;;;;;5012156;28;8560;-83
2023/07/01 02:20:54;;;;;;;;;;;;;;;;;;5011914;28;7250;-83
2023/07/01 02:23:19;;;;;;;;;;;;;;;;;;5011787;28;8407;-83
2023/07/01 02:25:45;;;;;;;;;;;;;;;;;;5011465;28;7093;-83
2023/07/01 02:28:10;;;;;;;;;;;;;;;;;;5011597;28;8424;-84
2023/07/01 02:30:36;;;;;;;;;;;;;;;;;;5011501;28;8706;-83
2023/07/01 02:33:02;;;;;;;;;;;;;;;;;;5011617;28;7407;-84
2023/07/01 02:35:29;;;;;;;;;;;;;;;;;;5009443;28;8659;-84
2023/07/01 02:37:54;;;;;;;;;;;;;;;;;;4999249;28;7123;-84
2023/07/01 02:40:20;;;;;;;;;;;;;;;;;;5010761;28;8437;-83
2023/07/01 02:42:46;;;;;;;;;;;;;;;;;;5001865;28;7205;-83
2023/07/01 02:45:11;;;;;;;;;;;;;;;;;;5002379;28;8463;-84
2023/07/01 02:47:37;;;;;;;;;;;;;;;;;;5010758;28;8470;-83
2023/07/01 02:50:04;;;;;;;;;;;;;;;;;;5002269;28;7204;-83
2023/07/01 02:52:30;;;;;;;;;;;;;;;;;;5000837;28;7206;-83
2023/07/01 02:54:56;;;;;;;;;;;;;;;;;;5005209;28;8502;-84
2023/07/01 02:57:22;;;;;;;;;;;;;;;;;;5011081;28;7166;-85
2023/07/01 02:59:51;;;;;;;;;;;;;;;;;;5010919;28;8823;-83
2023/07/01 03:02:17;;;;;;;;;;;;;;;;;;5010526;28;8544;-84
2023/07/01 03:04:42;;;;;;;;;;;;;;;;;;5011216;28;8323;-84
2023/07/01 03:07:08;;;;;;;;;;;;;;;;;;5010865;28;8414;-84
2023/07/01 03:09:33;;;;;;;;;;;;;;;;;;5010596;28;8365;-83
2023/07/01 03:11:59;;;;;;;;;;;;;;;;;;5010839;28;8425;-83
2023/07/01 03:14:24;;;;;;;;;;;;;;;;;;5010917;28;7202;-83
2023/07/01 03:16:52;;;;;;;;;;;;;;;;;;5010789;28;8330;-85
2023/07/01 03:19:18;;;;;;;;;;;;;;;;;;5010618;28;8433;-84
2023/07/01 03:21:44;;;;;;;;;;;;;;;;;;5010375;28;8503;-84
2023/07/01 03:24:10;;;;;;;;;;;;;;;;;;5005134;28;9148;-84
2023/07/01 03:26:35;;;;;;;;;;;;;;;;;;4975636;28;8768;-84
2023/07/01 03:29:02;;;;;;;;;;;;;;;;;;4991302;28;7059;-83
2023/07/01 03:31:28;;;;;;;;;;;;;;;;;;4991517;28;8403;-83
2023/07/01 03:33:53;;;;;;;;;;;;;;;;;;4984262;28;7263;-83
2023/07/01 03:36:19;;;;;;;;;;;;;;;;;;4974979;28;8673;-83
2023/07/01 03:38:45;;;;;;;;;;;;;;;;;;4975215;28;8283;-82
2023/07/01 03:41:10;;;;;;;;;;;;;;;;;;4975259;28;8460;-83
2023/07/01 03:43:36;;;;;;;;;;;;;;;;;;4975303;28;8395;-83
2023/07/01 03:46:02;;;;;;;;;;;;;;;;;;4975133;28;8451;-83
2023/07/01 03:48:29;;;;;;;;;;;;;;;;;;4974750;28;7239;-84
2023/07/01 03:50:55;;;;;;;;;;;;;;;;;;4975076;28;8902;-83
2023/07/01 03:53:20;;;;;;;;;;;;;;;;;;4975165;28;7115;-84
2023/07/01 03:55:47;;;;;;;;;;;;;;;;;;4975031;28;7099;-84
2023/07/01 03:58:21;;;;;;;;;;;;;;;;;;4974890;28;8449;-83
2023/07/01 04:00:50;;;;;;;;;;;;;;;;;;4974547;28;7168;-83
2023/07/01 04:03:16;;;;;;;;;;;;;;;;;;4974267;28;7064;-83
2023/07/01 04:05:41;;;;;;;;;;;;;;;;;;4974622;28;8495;-84
2023/07/01 04:08:07;;;;;;;;;;;;;;;;;;4974842;28;8764;-83
2023/07/01 04:10:33;;;;;;;;;;;;;;;;;;4973814;28;7484;-83
2023/07/01 04:13:00;;;;;;;;;;;;;;;;;;4972263;28;8435;-83
2023/07/01 04:15:27;;;;;;;;;;;;;;;;;;4972758;28;7089;-84
2023/07/01 04:17:54;;;;;;;;;;;;;;;;;;4973933;28;8398;-84
2023/07/01 04:20:19;;;;;;;;;;;;;;;;;;4973378;28;8379;-84
2023/07/01 04:22:45;;;;;;;;;;;;;;;;;;4973642;28;8442;-83
2023/07/01 04:25:11;;;;;;;;;;;;;;;;;;4973450;28;8882;-84
2023/07/01 04:27:36;;;;;;;;;;;;;;;;;;4973305;28;8431;-83
2023/07/01 04:30:03;;;;;;;;;;;;;;;;;;4973378;28;7364;-83
2023/07/01 04:32:28;;;;;;;;;;;;;;;;;;4972645;28;7125;-83
2023/07/01 04:34:54;;;;;;;;;;;;;;;;;;4972597;28;8517;-80
2023/07/01 04:37:19;;;;;;;;;;;;;;;;;;4972413;28;7143;-85
2023/07/01 04:39:45;;;;;;;;;;;;;;;;;;4972680;28;6862;-84
2023/07/01 04:42:10;;;;;;;;;;;;;;;;;;4972422;28;7292;-84
2023/07/01 04:44:36;;;;;;;;;;;;;;;;;;4972458;28;8547;-85
2023/07/01 04:47:01;;;;;;;;;;;;;;;;;;4972624;28;8372;-83
2023/07/01 04:49:27;;;;;;;;;;;;;;;;;;4973452;28;8411;-85
2023/07/01 04:51:52;;;;;;;;;;;;;;;;;;4973622;28;7275;-84
2023/07/01 04:54:18;;;;;;;;;;;;;;;;;;4973366;28;7187;-83
2023/07/01 04:56:44;;;;;;;;;;;;;;;;;;4973565;28;6940;-84
2023/07/01 04:59:09;;;;;;;;;;;;;;;;;;4972879;28;8714;-83
2023/07/01 05:01:35;;;;;;;;;;;;;;;;;;4975613;28;7035;-84
2023/07/01 05:04:01;;;;;;;;;;;;;;;;;;4977582;28;8647;-84
2023/07/01 05:06:27;;;;;;;;;;;;;;;;;;4977159;28;7262;-83
2023/07/01 05:08:53;;;;;;;;;;;;;;;;;;4988224;28;8854;-84
2023/07/01 05:11:19;;;;;;;;;;;;;;;;;;4996285;28;8432;-83
2023/07/01 05:13:45;;;;;;;;;;;;;;;;;;4996616;28;8545;-84
2023/07/01 05:16:11;;;;;;;;;;;;;;;;;;4996305;28;7163;-84
2023/07/01 05:18:37;;;;;;;;;;;;;;;;;;4995992;28;8423;-83
2023/07/01 05:21:03;;;;;;;;;;;;;;;;;;4996407;28;8508;-84
2023/07/01 05:23:28;;;;;;;;;;;;;;;;;;4996311;28;8418;-85
2023/07/01 05:25:54;;;;;;;;;;;;;;;;;;4995912;28;8489;-84
2023/07/01 05:28:19;;;;;;;;;;;;;;;;;;4996334;28;8689;-84
2023/07/01 05:30:46;;;;;;;;;;;;;;;;;;4996548;28;8490;-83
2023/07/01 05:33:11;;;;;;;;;;;;;;;;;;4995995;28;7314;-85
2023/07/01 05:35:37;;;;;;;;;;;;;;;;;;4994542;28;8717;-84
2023/07/01 05:38:06;;;;;;;;;;;;;;;;;;4994223;28;8428;-84
2023/07/01 05:40:31;;;;;;;;;;;;;;;;;;4994126;28;8438;-84
2023/07/01 05:42:57;;;;;;;;;;;;;;;;;;4994210;28;8534;-84
2023/07/01 05:45:22;;;;;;;;;;;;;;;;;;4994194;28;8446;-84
2023/07/01 05:47:48;;;;;;;;;;;;;;;;;;4994170;28;8485;-84
2023/07/01 05:50:13;;;;;;;;;;;;;;;;;;4995339;28;8445;-83
2023/07/01 05:52:39;;;;;;;;;;;;;;;;;;4995734;28;7131;-84
2023/07/01 05:55:05;;;;;;;;;;;;;;;;;;4995728;28;8368;-84
2023/07/01 05:57:30;;;;;;;;;;;;;;;;;;4995471;28;7094;-84
2023/07/01 05:59:57;;;;;;;;;;;;;;;;;;4995536;28;8582;-84
2023/07/01 06:02:22;;;;;;;;;;;;;;;;;;4995370;28;7115;-84
2023/07/01 06:04:48;;;;;;;;;;;;;;;;;;4995758;28;8458;-84
2023/07/01 06:07:14;;;;;;;;;;;;;;;;;;4995389;28;8562;-84
2023/07/01 06:09:46;;;;;;;;;;;;;;;;;;4995609;28;8432;-84
2023/07/01 06:12:12;;;;;;;;;;;;;;;;;;4994982;28;8465;-84
2023/07/01 06:14:37;;;;;;;;;;;;;;;;;;4995321;28;8748;-83
2023/07/01 06:17:03;;;;;;;;;;;;;;;;;;4995070;28;8529;-85
2023/07/01 06:19:28;;;;;;;;;;;;;;;;;;4995079;28;8451;-85
2023/07/01 06:21:54;;;;;;;;;;;;;;;;;;4995054;28;7330;-84
2023/07/01 06:24:19;;;;;;;;;;;;;;;;;;4994924;28;7178;-85
2023/07/01 06:26:45;;;;;;;;;;;;;;;;;;4995451;28;7044;-83
2023/07/01 06:29:11;;;;;;;;;;;;;;;;;;4995450;28;8516;-83
2023/07/01 06:31:37;;;;;;;;;;;;;;;;;;4994700;28;8502;-83
2023/07/01 06:34:04;;;;;;;;;;;;;;;;;;4994880;28;8399;-84
2023/07/01 06:36:30;;;;;;;;;;;;;;;;;;5011027;28;8521;-83
2023/07/01 06:38:55;;;;;;;;;;;;;;;;;;4994582;28;8794;-85
2023/07/01 06:41:21;;;;;;;;;;;;;;;;;;4994969;28;7163;-84
2023/07/01 06:43:46;;;;;;;;;;;;;;;;;;4994866;28;8387;-83
2023/07/01 06:46:12;;;;;;;;;;;;;;;;;;4994722;28;8444;-83
2023/07/01 06:48:42;;;;;;;;;;;;;;;;;;4994697;28;8517;-82
2023/07/01 06:51:08;;;;;;;;;;;;;;;;;;4994553;28;9180;-82
2023/07/01 06:53:37;;;;;;;;;;;;;;;;;;4995126;28;7065;-82
2023/07/01 06:56:03;;;;;;;;;;;;;;;;;;4994527;28;7549;-90
2023/07/01 06:58:29;;;;;;;;;;;;;;;;;;4995565;28;8523;-86
2023/07/01 07:00:54;;;;;;;;;;;;;;;;;;4994958;28;8617;-87
2023/07/01 07:03:19;;;;;;;;;;;;;;;;;;5013957;28;8750;-82
2023/07/01 07:05:45;;;;;;;;;;;;;;;;;;5013714;28;7276;-86
2023/07/01 07:08:11;;;;;;;;;;;;;;;;;;5014242;28;8562;-88
2023/07/01 07:10:37;;;;;;;;;;;;;;;;;;5007098;28;7453;-84
2023/07/01 07:13:03;;;;;;;;;;;;;;;;;;4980564;28;7186;-83
2023/07/01 07:15:29;;;;;;;;;;;;;;;;;;5013174;28;7204;-82
2023/07/01 07:17:55;;;;;;;;;;;;;;;;;;5013518;28;8936;-84
2023/07/01 07:20:21;;;;;;;;;;;;;;;;;;5013921;28;8342;-85
2023/07/01 07:22:47;;;;;;;;;;;;;;;;;;5003554;28;8709;-82
2023/07/01 07:25:16;;;;;;;;;;;;;;;;;;4981245;28;8499;-83
2023/07/01 07:27:46;;;;;;;;;;;;;;;;;;4993841;28;9284;-90
2023/07/01 07:30:13;;;;;;;;;;;;;;;;;;4993569;28;8781;-84
2023/07/01 07:32:39;;;;;;;;;;;;;;;;;;4993712;28;8513;-86
2023/07/01 07:35:05;;;;;;;;;;;;;;;;;;4993703;28;9281;-83
2023/07/01 07:37:30;;;;;;;;;;;;;;;;;;4993325;28;8894;-84
2023/07/01 07:39:59;;;;;;;;;;;;;;;;;;4993325;28;8417;-82
2023/07/01 07:42:25;;;;;;;;;;;;;;;;;;4993491;28;8906;-82
2023/07/01 07:44:51;;;;;;;;;;;;;;;;;;4993317;28;8478;-82
2023/07/01 07:47:16;;;;;;;;;;;;;;;;;;4993378;28;8523;-82
2023/07/01 07:49:42;;;;;;;;;;;;;;;;;;4993484;28;7209;-82
2023/07/01 07:52:07;;;;;;;;;;;;;;;;;;4993595;28;7228;-82
2023/07/01 07:54:33;;;;;;;;;;;;;;;;;;4993144;28;8591;-82
2023/07/01 07:56:58;;;;;;;;;;;;;;;;;;4993167;28;8581;-82
2023/07/01 07:59:25;;;;;;;;;;;;;;;;;;4993016;28;7149;-83
2023/07/01 08:01:52;;;;;;;;;;;;;;;;;;4992969;28;9268;-81
2023/07/01 08:04:18;;;;;;;;;;;;;;;;;;4988228;28;7226;-85
2023/07/01 08:06:43;;;;;;;;;;;;;;;;;;4990213;28;8485;-84
2023/07/01 08:09:09;;;;;;;;;;;;;;;;;;4999662;28;8496;-83
2023/07/01 08:11:34;;;;;;;;;;;;;;;;;;4991952;28;7855;-81
2023/07/01 08:14:00;;;;;;;;;;;;;;;;;;5003829;28;8937;-82
2023/07/01 08:16:25;;;;;;;;;;;;;;;;;;5012138;28;8564;-82
2023/07/01 08:18:51;;;;;;;;;;;;;;;;;;5012423;28;8499;-81
2023/07/01 08:21:16;;;;;;;;;;;;;;;;;;5012274;28;8486;-83
2023/07/01 08:23:42;;;;;;;;;;;;;;;;;;5012353;28;7421;-83
2023/07/01 08:26:07;;;;;;;;;;;;;;;;;;5012556;28;8963;-81
2023/07/01 08:28:33;;;;;;;;;;;;;;;;;;5005411;28;8533;-82
2023/07/01 08:30:58;;;;;;;;;;;;;;;;;;4995961;28;7111;-83
2023/07/01 08:33:25;;;;;;;;;;;;;;;;;;4996286;28;8819;-83
2023/07/01 08:35:50;;;;;;;;;;;;;;;;;;4975439;28;8534;-85
2023/07/01 08:38:18;;;;;;;;;;;;;;;;;;4991849;28;7213;-81
2023/07/01 08:40:46;;;;;;;;;;;;;;;;;;4993041;28;8542;-81
2023/07/01 08:43:11;;;;;;;;;;;;;;;;;;4993288;28;7038;-81
2023/07/01 08:45:38;;;;;;;;;;;;;;;;;;4992786;28;8570;-82
2023/07/01 08:48:05;;;;;;;;;;;;;;;;;;4992375;28;7121;-84
2023/07/01 08:50:42;;;;;;;;;;;;;;;;;;4992739;28;8481;-81
2023/07/01 08:53:10;;;;;;;;;;;;;;;;;;4992499;28;8504;-82
2023/07/01 08:55:35;;;;;;;;;;;;;;;;;;4992315;28;8503;-81
2023/07/01 08:58:02;;;;;;;;;;;;;;;;;;4992705;28;8781;-81
2023/07/01 09:00:30;;;;;;;;;;;;;;;;;;4992494;28;8912;-81
2023/07/01 09:02:56;;;;;;;;;;;;;;;;;;4992364;28;8515;-81
2023/07/01 09:05:21;;;;;;;;;;;;;;;;;;4992537;28;7407;-82
2023/07/01 09:07:47;;;;;;;;;;;;;;;;;;4992268;28;7165;-83
2023/07/01 09:10:13;;;;;;;;;;;;;;;;;;4992640;28;8848;-81
2023/07/01 09:12:38;;;;;;;;;;;;;;;;;;4992305;28;7608;-82
2023/07/01 09:15:05;;;;;;;;;;;;;;;;;;4992755;28;8404;-80
2023/07/01 09:17:32;;;;;;;;;;;;;;;;;;4991647;28;7159;-81
2023/07/01 09:19:59;;;;;;;;;;;;;;;;;;4991519;28;8503;-81
2023/07/01 09:22:25;;;;;;;;;;;;;;;;;;4991356;28;7350;-81
2023/07/01 09:24:51;;;;;;;;;;;;;;;;;;4991698;28;7246;-81
2023/07/01 09:27:17;;;;;;;;;;;;;;;;;;4993269;28;7835;-84
2023/07/01 09:29:42;;;;;;;;;;;;;;;;;;5002646;28;8512;-82
2023/07/01 09:32:08;;;;;;;;;;;;;;;;;;4979529;28;7101;-81
2023/07/01 09:34:57;;;;;;;;;;;;;;;;;;4975025;28;7130;-80
2023/07/01 09:37:23;;;;;;;;;;;;;;;;;;4975577;28;8873;-80
2023/07/01 09:39:49;;;;;;;;;;;;;;;;;;4975597;28;8694;-80
2023/07/01 09:42:16;;;;;;;;;;;;;;;;;;4975377;28;7317;-79
2023/07/01 09:44:43;;;;;;;;;;;;;;;;;;4974920;28;7141;-81
2023/07/01 09:47:10;;;;;;;;;;;;;;;;;;4994641;28;8502;-80
2023/07/01 09:49:40;;;;;;;;;;;;;;;;;;4994977;28;8516;-80
2023/07/01 09:52:06;;;;;;;;;;;;;;;;;;4978637;28;8554;-80
2023/07/01 09:54:31;;;;;;;;;;;;;;;;;;4988058;28;8448;-79
2023/07/01 09:56:59;;;;;;;;;;;;;;;;;;4993688;28;8688;-80
2023/07/01 09:59:25;;;;;;;;;;;;;;;;;;4988165;28;8781;-79
2023/07/01 10:01:58;;;;;;;;;;;;;;;;;;4989421;28;8787;-80
2023/07/01 10:04:28;;;;;;;;;;;;;;;;;;4993618;28;8809;-79
2023/07/01 10:06:54;;;;;;;;;;;;;;;;;;4978696;28;7260;-79
2023/07/01 10:09:20;;;;;;;;;;;;;;;;;;4979586;28;7245;-80
2023/07/01 10:11:46;;;;;;;;;;;;;;;;;;4989812;28;8720;-79
2023/07/01 10:14:13;;;;;;;;;;;;;;;;;;4986450;28;8514;-79
2023/07/01 10:16:47;;;;;;;;;;;;;;;;;;4976077;28;7967;-81
2023/07/01 10:19:32;;;;;;;;;;;;;;;;;;4977625;28;7062;-80
2023/07/01 10:22:16;;;;;;;;;;;;;;;;;;4975652;28;7134;-79
2023/07/01 10:24:42;;;;;;;;;;;;;;;;;;4976183;28;8832;-79
2023/07/01 10:27:08;;;;;;;;;;;;;;;;;;4984786;28;7266;-79
2023/07/01 10:29:36;;;;;;;;;;;;;;;;;;4991024;28;8487;-80
2023/07/01 10:32:05;;;;;;;;;;;;;;;;;;4994707;28;7445;-80
2023/07/01 10:34:49;;;;;;;;;;;;;;;;;;4998138;28;8565;-79
2023/07/01 10:37:14;;;;;;;;;;;;;;;;;;4994405;28;8499;-79
2023/07/01 10:39:40;;;;;;;;;;;;;;;;;;4990717;28;8673;-80
2023/07/01 10:42:29;;;;;;;;;;;;;;;;;;4990728;28;7228;-79
2023/07/01 10:45:15;;;;;;;;;;;;;;;;;;4990978;28;8531;-80
2023/07/01 10:47:44;;;;;;;;;;;;;;;;;;4994285;28;8471;-79
2023/07/01 10:50:11;;;;;;;;;;;;;;;;;;4996074;28;8829;-79
2023/07/01 10:53:07;;;;;;;;;;;;;;;;;;4988262;28;8513;-79
2023/07/01 10:55:49;;;;;;;;;;;;;;;;;;4993461;28;7344;-80
2023/07/01 10:58:16;;;;;;;;;;;;;;;;;;4981042;28;7180;-80
2023/07/01 11:00:41;;;;;;;;;;;;;;;;;;5010051;28;7286;-80
2023/07/01 11:03:30;;;;;;;;;;;;;;;;;;5001989;28;7218;-80
2023/07/01 11:05:59;;;;;;;;;;;;;;;;;;5001515;28;8629;-80
2023/07/01 11:08:29;;;;;;;;;;;;;;;;;;5009799;28;8623;-80
2023/07/01 11:10:55;;;;;;;;;;;;;;;;;;5009847;28;8830;-79
2023/07/01 11:13:21;;;;;;;;;;;;;;;;;;5001856;28;8552;-80
2023/07/01 11:15:59;;;;;;;;;;;;;;;;;;5006699;28;8688;-79
2023/07/01 11:18:39;;;;;;;;;;;;;;;;;;4990558;28;8547;-79
2023/07/01 11:21:04;;;;;;;;;;;;;;;;;;4991037;28;7143;-79
2023/07/01 11:23:30;;;;;;;;;;;;;;;;;;4990429;28;8507;-80
2023/07/01 11:25:55;;;;;;;;;;;;;;;;;;4990703;28;8711;-79
2023/07/01 11:28:34;;;;;;;;;;;;;;;;;;4990429;28;7099;-80
2023/07/01 11:31:11;;;;;;;;;;;;;;;;;;4990705;28;8968;-79
2023/07/01 11:33:42;;;;;;;;;;;;;;;;;;4990411;28;8528;-79
2023/07/01 11:36:07;;;;;;;;;;;;;;;;;;4990352;28;8883;-80
2023/07/01 11:38:33;;;;;;;;;;;;;;;;;;4990143;28;8550;-78
2023/07/01 11:40:59;;;;;;;;;;;;;;;;;;4990364;28;8505;-80
2023/07/01 11:43:26;;;;;;;;;;;;;;;;;;4989975;28;8539;-80
2023/07/01 11:45:52;;;;;;;;;;;;;;;;;;4990016;28;9057;-80
2023/07/01 11:48:31;;;;;;;;;;;;;;;;;;4990552;28;8456;-80
2023/07/01 11:50:57;;;;;;;;;;;;;;;;;;5001161;28;8487;-79
2023/07/01 11:53:23;;;;;;;;;;;;;;;;;;4992017;28;7352;-79
2023/07/01 11:55:48;;;;;;;;;;;;;;;;;;4989924;28;8415;-80
2023/07/01 11:58:24;;;;;;;;;;;;;;;;;;4973626;28;8506;-81
2023/07/01 12:00:49;;;;;;;;;;;;;;;;;;4991931;28;8511;-80
2023/07/01 12:03:15;;;;;;;;;;;;;;;;;;4992989;28;8803;-80
2023/07/01 12:05:44;;;;;;;;;;;;;;;;;;4993008;28;8633;-80
2023/07/01 12:08:10;;;;;;;;;;;;;;;;;;4992498;28;7092;-80
2023/07/01 12:10:36;;;;;;;;;;;;;;;;;;4981241;28;8366;-79
2023/07/01 12:13:01;;;;;;;;;;;;;;;;;;4989702;28;8641;-78
2023/07/01 12:15:27;;;;;;;;;;;;;;;;;;4973228;28;8737;-78
2023/07/01 12:17:53;;;;;;;;;;;;;;;;;;4990224;28;7233;-79
2023/07/01 12:20:20;;;;;;;;;;;;;;;;;;4989629;28;7251;-78
2023/07/01 12:22:46;;;;;;;;;;;;;;;;;;4973437;28;8747;-78
2023/07/01 12:25:12;;;;;;;;;;;;;;;;;;4987854;28;7294;-78
2023/07/01 12:27:37;;;;;;;;;;;;;;;;;;4992711;28;7481;-79
2023/07/01 12:30:07;;;;;;;;;;;;;;;;;;4992654;28;7215;-78
2023/07/01 12:32:33;;;;;;;;;;;;;;;;;;4992474;28;9391;-79
2023/07/01 12:34:58;;;;;;;;;;;;;;;;;;4992916;28;7379;-79
2023/07/01 12:37:25;;;;;;;;;;;;;;;;;;4992387;28;8777;-78
2023/07/01 12:39:54;;;;;;;;;;;;;;;;;;4991989;28;8926;-78
2023/07/01 12:42:21;;;;;;;;;;;;;;;;;;4992373;28;8892;-78
2023/07/01 12:44:46;;;;;;;;;;;;;;;;;;4989170;28;8543;-78
2023/07/01 12:47:12;;;;;;;;;;;;;;;;;;4973128;28;8677;-79
2023/07/01 12:49:39;;;;;;;;;;;;;;;;;;4972890;28;8645;-78
2023/07/01 12:52:04;;;;;;;;;;;;;;;;;;4979848;28;8826;-84
2023/07/01 12:54:33;;;;;;;;;;;;;;;;;;4979582;28;8508;-83
2023/07/01 12:56:59;;;;;;;;;;;;;;;;;;4992732;28;8534;-83
2023/07/01 12:59:24;;;;;;;;;;;;;;;;;;5005719;28;7078;-82
2023/07/01 13:01:50;;;;;;;;;;;;;;;;;;4972751;28;8501;-83
2023/07/01 13:04:18;;;;;;;;;;;;;;;;;;4975816;28;8363;-80
2023/07/01 13:06:44;;;;;;;;;;;;;;;;;;4990825;28;8648;-82
2023/07/01 13:09:12;;;;;;;;;;;;;;;;;;4990136;28;8544;-83
2023/07/01 13:11:39;;;;;;;;;;;;;;;;;;4991890;28;7134;-82
2023/07/01 13:14:07;;;;;;;;;;;;;;;;;;4989129;28;8622;-83
2023/07/01 13:16:37;;;;;;;;;;;;;;;;;;4989005;28;7843;-83
2023/07/01 13:19:13;;;;;;;;;;;;;;;;;;4973414;28;8540;-84
2023/07/01 13:21:40;;;;;;;;;;;;;;;;;;4973518;28;7131;-82
2023/07/01 13:24:08;;;;;;;;;;;;;;;;;;4981655;28;7066;-83
2023/07/01 13:26:34;;;;;;;;;;;;;;;;;;4996318;28;8476;-83
2023/07/01 13:29:00;;;;;;;;;;;;;;;;;;4996058;28;7345;-82
2023/07/01 13:31:26;;;;;;;;;;;;;;;;;;4996267;28;8480;-83
2023/07/01 13:33:56;;;;;;;;;;;;;;;;;;4996136;28;7202;-84
2023/07/01 13:36:21;;;;;;;;;;;;;;;;;;4995824;28;7242;-83
2023/07/01 13:38:48;;;;;;;;;;;;;;;;;;4993163;28;7167;-83
2023/07/01 13:41:16;;;;;;;;;;;;;;;;;;4976288;28;8436;-82
2023/07/01 13:43:41;;;;;;;;;;;;;;;;;;4976175;28;8908;-83
2023/07/01 13:46:07;;;;;;;;;;;;;;;;;;4976547;28;7085;-83
2023/07/01 13:48:35;;;;;;;;;;;;;;;;;;4976161;28;7300;-83
2023/07/01 13:51:01;;;;;;;;;;;;;;;;;;4992738;28;8904;-82
2023/07/01 13:53:28;;;;;;;;;;;;;;;;;;4995571;28;8533;-83
2023/07/01 13:55:55;;;;;;;;;;;;;;;;;;4995439;28;8876;-81
2023/07/01 13:58:21;;;;;;;;;;;;;;;;;;4995439;28;8857;-83
2023/07/01 14:00:51;;;;;;;;;;;;;;;;;;4995205;28;8438;-81
2023/07/01 14:03:22;;;;;;;;;;;;;;;;;;4995069;28;8551;-82
2023/07/01 14:05:50;;;;;;;;;;;;;;;;;;5011370;28;7307;-82
2023/07/01 14:08:16;;;;;;;;;;;;;;;;;;4995350;28;8539;-82
2023/07/01 14:10:42;;;;;;;;;;;;;;;;;;4994322;28;8505;-81
2023/07/01 14:13:10;;;;;;;;;;;;;;;;;;4993861;28;8529;-82
2023/07/01 14:15:47;;;;;;;;;;;;;;;;;;4994992;28;7257;-83
2023/07/01 14:18:23;;;;;;;;;;;;;;;;;;4994339;28;8818;-82
2023/07/01 14:20:53;;;;;;;;;;;;;;;;;;4994023;28;7122;-81
2023/07/01 14:23:21;;;;;;;;;;;;;;;;;;4993983;28;8662;-82
2023/07/01 14:25:47;;;;;;;;;;;;;;;;;;4994163;28;8615;-82
2023/07/01 14:28:14;;;;;;;;;;;;;;;;;;4995126;28;8487;-83
2023/07/01 14:30:52;;;;;;;;;;;;;;;;;;4993972;28;8478;-83
2023/07/01 14:33:18;;;;;;;;;;;;;;;;;;5010462;28;8504;-82
2023/07/01 14:35:48;;;;;;;;;;;;;;;;;;4994321;28;8546;-84
2023/07/01 14:38:15;;;;;;;;;;;;;;;;;;4991064;28;7437;-88
2023/07/01 14:40:41;;;;;;;;;;;;;;;;;;4994490;28;8458;-80
2023/07/01 14:43:08;;;;;;;;;;;;;;;;;;4994236;28;8571;-83
2023/07/01 14:45:34;;;;;;;;;;;;;;;;;;4994432;28;8559;-80
2023/07/01 14:48:00;;;;;;;;;;;;;;;;;;4994591;28;7238;-80
2023/07/01 14:50:25;;;;;;;;;;;;;;;;;;4994512;28;8590;-80
2023/07/01 14:52:51;;;;;;;;;;;;;;;;;;4994196;28;8839;-81
2023/07/01 14:55:16;;;;;;;;;;;;;;;;;;4994237;28;8674;-80
2023/07/01 14:57:42;;;;;;;;;;;;;;;;;;4994308;28;8488;-81
2023/07/01 15:00:08;;;;;;;;;;;;;;;;;;4993515;28;8788;-80
2023/07/01 15:02:34;;;;;;;;;;;;;;;;;;4992557;28;8798;-80
2023/07/01 15:04:59;;;;;;;;;;;;;;;;;;4992347;28;8555;-80
2023/07/01 15:07:25;;;;;;;;;;;;;;;;;;4992387;28;8722;-80
2023/07/01 15:09:50;;;;;;;;;;;;;;;;;;4992126;28;8531;-79
2023/07/01 15:12:16;;;;;;;;;;;;;;;;;;4992454;28;8611;-79
2023/07/01 15:14:44;;;;;;;;;;;;;;;;;;4993381;28;8818;-79
2023/07/01 15:17:10;;;;;;;;;;;;;;;;;;4993823;28;8531;-80
2023/07/01 15:19:35;;;;;;;;;;;;;;;;;;4993544;28;8452;-79
2023/07/01 15:22:01;;;;;;;;;;;;;;;;;;4993463;28;8531;-79
2023/07/01 15:24:26;;;;;;;;;;;;;;;;;;4993530;28;7212;-80
2023/07/01 15:26:52;;;;;;;;;;;;;;;;;;4993714;28;8823;-80
2023/07/01 15:29:18;;;;;;;;;;;;;;;;;;4993696;28;7497;-80
2023/07/01 15:31:43;;;;;;;;;;;;;;;;;;4992998;28;8658;-80
2023/07/01 15:34:09;;;;;;;;;;;;;;;;;;4993861;28;8489;-80
2023/07/01 15:36:35;;;;;;;;;;;;;;;;;;4993468;28;8469;-80
2023/07/01 15:39:00;;;;;;;;;;;;;;;;;;4993502;28;8492;-81
2023/07/01 15:41:26;;;;;;;;;;;;;;;;;;4993093;28;7221;-81
2023/07/01 15:43:51;;;;;;;;;;;;;;;;;;4992971;28;7314;-81
2023/07/01 15:46:17;;;;;;;;;;;;;;;;;;4993170;28;7088;-81
2023/07/01 15:48:42;;;;;;;;;;;;;;;;;;4993640;28;8856;-81
2023/07/01 15:51:07;;;;;;;;;;;;;;;;;;4992991;28;7207;-81
2023/07/01 15:53:33;;;;;;;;;;;;;;;;;;4993211;28;8623;-81
2023/07/01 15:55:59;;;;;;;;;;;;;;;;;;4993207;28;9618;-80
2023/07/01 15:58:25;;;;;;;;;;;;;;;;;;4992835;28;8479;-80
2023/07/01 16:00:51;;;;;;;;;;;;;;;;;;4992843;28;8585;-80
2023/07/01 16:03:16;;;;;;;;;;;;;;;;;;4992697;28;8481;-80
2023/07/01 16:05:41;;;;;;;;;;;;;;;;;;4993116;28;8724;-81
2023/07/01 16:08:14;;;;;;;;;;;;;;;;;;4993088;28;8513;-81
2023/07/01 16:10:41;;;;;;;;;;;;;;;;;;4992414;28;7138;-81
2023/07/01 16:13:07;;;;;;;;;;;;;;;;;;4993039;28;8485;-81
2023/07/01 16:15:53;;;;;;;;;;;;;;;;;;4993304;28;8875;-81
2023/07/01 16:18:38;;;;;;;;;;;;;;;;;;4993150;28;8762;-80
2023/07/01 16:21:04;;;;;;;;;;;;;;;;;;5007344;28;7187;-81
2023/07/01 16:23:31;;;;;;;;;;;;;;;;;;4992786;28;7270;-82
2023/07/01 16:26:06;;;;;;;;;;;;;;;;;;5007884;28;7484;-81
2023/07/01 16:28:43;;;;;;;;;;;;;;;;;;5012015;28;7150;-82
2023/07/01 16:31:13;;;;;;;;;;;;;;;;;;5012012;28;7192;-81
2023/07/01 16:33:39;;;;;;;;;;;;;;;;;;5012271;28;8561;-80
2023/07/01 16:36:04;;;;;;;;;;;;;;;;;;5012265;28;7320;-80
2023/07/01 16:38:31;;;;;;;;;;;;;;;;;;5028578;28;7241;-79
2023/07/01 16:40:59;;;;;;;;;;;;;;;;;;5011429;28;8487;-80
2023/07/01 16:43:37;;;;;;;;;;;;;;;;;;5012523;28;8693;-80
2023/07/01 16:46:03;;;;;;;;;;;;;;;;;;5011896;28;8662;-79
2023/07/01 16:48:45;;;;;;;;;;;;;;;;;;5011890;28;7252;-79
2023/07/01 16:51:15;;;;;;;;;;;;;;;;;;5011529;28;8856;-80
2023/07/01 16:53:42;;;;;;;;;;;;;;;;;;5012019;28;8809;-82
2023/07/01 16:56:10;;;;;;;;;;;;;;;;;;5012073;28;8450;-82
2023/07/01 16:58:42;;;;;;;;;;;;;;;;;;5015893;28;7363;-82
2023/07/01 17:01:09;;;;;;;;;;;;;;;;;;5032126;28;9353;-82
2023/07/01 17:03:38;;;;;;;;;;;;;;;;;;5035946;28;8518;-81